createdAt,value
2018-03-29T00:00:00.336Z,63.77
2018-03-29T00:02:28.231Z,74.00
2018-03-29T00:04:56.130Z,69.07
2018-03-29T00:07:23.981Z,79.03
2018-03-29T00:09:51.856Z,73.70
2018-03-29T00:12:19.696Z,82.60
2018-03-29T00:14:47.549Z,79.43
2018-03-29T00:17:15.452Z,72.50
2018-03-29T00:19:43.336Z,84.53
2018-03-29T00:22:11.197Z,87.57
2018-03-29T00:24:39.083Z,81.93
2018-03-29T00:27:07.022Z,97.37
2018-03-29T00:29:34.924Z,81.70
2018-03-29T00:32:02.866Z,84.00
2018-03-29T00:34:30.750Z,72.80
2018-03-29T00:36:58.622Z,87.90
2018-03-29T00:39:26.539Z,95.80
2018-03-29T00:41:54.603Z,83.37
2018-03-29T00:44:22.598Z,80.07
2018-03-29T00:46:50.640Z,87.17
2018-03-29T00:49:18.493Z,92.37
2018-03-29T00:51:46.737Z,81.00
2018-03-29T00:54:14.648Z,80.00
2018-03-29T00:56:42.496Z,87.23
2018-03-29T00:59:10.369Z,76.97
2018-03-29T01:01:38.234Z,74.77
2018-03-29T01:04:06.476Z,72.33
2018-03-29T01:06:34.341Z,75.50
2018-03-29T01:09:02.241Z,75.17
2018-03-29T01:11:30.152Z,67.63
2018-03-29T01:13:58.072Z,80.10
2018-03-29T01:16:26.045Z,82.20
2018-03-29T01:18:53.939Z,75.70
2018-03-29T01:21:21.813Z,88.63
2018-03-29T01:23:49.684Z,89.30
2018-03-29T01:26:17.531Z,75.83
2018-03-29T01:28:45.473Z,85.33
2018-03-29T01:31:13.330Z,73.90
2018-03-29T01:33:41.200Z,83.83
2018-03-29T01:36:09.068Z,70.67
2018-03-29T01:38:36.903Z,61.27
2018-03-29T01:41:04.812Z,69.07
2018-03-29T01:43:32.680Z,80.80
2018-03-29T01:46:00.540Z,82.13
2018-03-29T01:48:28.476Z,82.00
2018-03-29T01:50:56.347Z,85.30
2018-03-29T01:53:24.239Z,78.70
2018-03-29T01:55:52.128Z,82.00
2018-03-29T01:58:20.084Z,84.47
2018-03-29T02:00:47.948Z,95.13
2018-03-29T02:03:15.808Z,84.47
2018-03-29T02:05:43.727Z,93.90
2018-03-29T02:08:11.597Z,88.70
2018-03-29T02:10:39.921Z,85.77
2018-03-29T02:13:07.764Z,82.27
2018-03-29T02:15:36.420Z,83.27
2018-03-29T02:18:04.279Z,93.20
2018-03-29T02:20:32.188Z,94.53
2018-03-29T02:23:00.093Z,99.83
2018-03-29T02:25:27.945Z,87.07
2018-03-29T02:27:55.836Z,97.57
2018-03-29T02:30:23.685Z,104.80
2018-03-29T02:32:51.606Z,106.53
2018-03-29T02:35:19.493Z,619.80
2018-03-29T02:37:47.375Z,119.50
2018-03-29T02:40:15.236Z,415.23
2018-03-29T02:42:43.143Z,131.87
2018-03-29T02:45:11.006Z,133.37
2018-03-29T02:47:38.861Z,124.30
2018-03-29T02:50:06.781Z,121.00
2018-03-29T02:52:34.653Z,119.00
2018-03-29T02:55:02.510Z,125.23
2018-03-29T02:57:30.387Z,125.37
2018-03-29T02:59:58.241Z,116.97
2018-03-29T03:02:26.088Z,122.00
2018-03-29T03:04:53.982Z,117.40
2018-03-29T03:07:21.911Z,119.77
2018-03-29T03:09:49.745Z,120.67
2018-03-29T03:12:17.689Z,120.07
2018-03-29T03:14:45.546Z,122.17
2018-03-29T03:17:13.440Z,116.37
2018-03-29T03:19:41.310Z,128.03
2018-03-29T03:22:09.181Z,134.47
2018-03-29T03:24:37.080Z,118.33
2018-03-29T03:27:04.924Z,129.57
2018-03-29T03:29:32.793Z,131.00
2018-03-29T03:32:00.661Z,116.77
2018-03-29T03:34:28.550Z,112.70
2018-03-29T03:36:56.380Z,108.63
2018-03-29T03:39:24.223Z,104.57
2018-03-29T03:41:52.536Z,93.80
2018-03-29T03:44:20.388Z,88.00
2018-03-29T03:46:48.285Z,65.90
2018-03-29T03:49:22.303Z,68.60
2018-03-29T03:51:50.195Z,66.67
2018-03-29T03:54:18.029Z,54.90
2018-03-29T03:56:45.900Z,58.17
2018-03-29T03:59:13.748Z,50.07
2018-03-29T04:01:41.599Z,47.93
2018-03-29T04:04:09.518Z,40.07
2018-03-29T04:06:37.418Z,38.10
2018-03-29T04:09:05.263Z,32.97
2018-03-29T04:11:33.134Z,32.10
2018-03-29T04:14:00.989Z,28.07
2018-03-29T04:16:28.866Z,26.03
2018-03-29T04:18:56.766Z,26.30
2018-03-29T04:21:24.664Z,24.77
2018-03-29T04:23:52.510Z,22.40
2018-03-29T04:26:20.391Z,20.30
2018-03-29T04:28:48.284Z,21.63
2018-03-29T04:31:16.139Z,17.47
2018-03-29T04:33:44.033Z,18.00
2018-03-29T04:36:11.916Z,18.07
2018-03-29T04:38:39.779Z,17.87
2018-03-29T04:41:07.734Z,19.43
2018-03-29T04:43:35.579Z,18.20
2018-03-29T04:46:03.432Z,20.33
2018-03-29T04:48:31.315Z,16.13
2018-03-29T04:50:59.209Z,18.47
2018-03-29T04:53:27.089Z,18.30
2018-03-29T04:55:54.956Z,19.50
2018-03-29T04:58:22.793Z,18.93
2018-03-29T05:00:50.681Z,17.13
2018-03-29T05:03:18.849Z,19.70
2018-03-29T05:05:46.708Z,17.10
2018-03-29T05:08:14.610Z,16.00
2018-03-29T05:10:42.517Z,15.47
2018-03-29T05:13:10.384Z,15.20
2018-03-29T05:15:39.229Z,15.50
2018-03-29T05:18:07.135Z,16.33
2018-03-29T05:20:35.053Z,23.80
2018-03-29T05:23:02.941Z,15.90
2018-03-29T05:25:34.810Z,18.13
2018-03-29T05:28:08.535Z,13.43
2018-03-29T05:30:36.466Z,13.00
2018-03-29T05:33:04.342Z,13.33
2018-03-29T05:35:32.187Z,12.73
2018-03-29T05:38:00.107Z,11.63
2018-03-29T05:40:28.009Z,8.43
2018-03-29T05:42:55.995Z,8.13
2018-03-29T05:45:23.883Z,6.33
2018-03-29T05:47:51.725Z,7.00
2018-03-29T05:50:19.639Z,6.10
2018-03-29T05:52:48.009Z,6.50
2018-03-29T05:55:15.853Z,7.13
2018-03-29T05:57:44.750Z,6.63
2018-03-29T06:00:12.673Z,5.63
2018-03-29T06:02:40.517Z,6.50
2018-03-29T06:05:09.341Z,6.30
2018-03-29T06:07:37.251Z,6.23
2018-03-29T06:10:05.109Z,8.20
2018-03-29T06:12:33.447Z,10.57
2018-03-29T06:15:07.339Z,7.30
2018-03-29T06:17:35.275Z,6.17
2018-03-29T06:20:03.253Z,6.17
2018-03-29T06:22:31.423Z,6.30
2018-03-29T06:24:59.280Z,5.30
2018-03-29T06:27:27.267Z,5.30
2018-03-29T06:29:55.160Z,9.13
2018-03-29T06:32:23.035Z,6.20
2018-03-29T06:34:51.383Z,4.53
2018-03-29T06:37:19.291Z,5.60
2018-03-29T06:39:47.152Z,4.70
2018-03-29T06:42:15.133Z,5.40
2018-03-29T06:44:43.111Z,4.70
2018-03-29T06:47:11.059Z,3.80
2018-03-29T06:49:39.039Z,4.87
2018-03-29T06:52:06.944Z,3.43
2018-03-29T06:54:34.787Z,4.53
2018-03-29T06:57:02.642Z,4.80
2018-03-29T06:59:30.530Z,5.80
2018-03-29T07:01:58.371Z,4.73
2018-03-29T07:04:26.321Z,3.67
2018-03-29T07:06:54.259Z,6.73
2018-03-29T07:09:22.130Z,5.00
2018-03-29T07:11:50.076Z,3.83
2018-03-29T07:14:17.997Z,4.10
2018-03-29T07:16:45.877Z,3.90
2018-03-29T07:19:13.737Z,4.00
2018-03-29T07:21:42.413Z,4.00
2018-03-29T07:24:10.243Z,3.60
2018-03-29T07:26:38.293Z,3.40
2018-03-29T07:29:06.201Z,3.43
2018-03-29T07:31:34.130Z,3.27
2018-03-29T07:34:02.031Z,3.70
2018-03-29T07:36:30.050Z,3.77
2018-03-29T07:38:59.409Z,5.03
2018-03-29T07:41:27.298Z,4.67
2018-03-29T07:43:55.267Z,3.37
2018-03-29T07:46:23.110Z,4.80
2018-03-29T07:48:51.004Z,4.50
2018-03-29T07:51:19.877Z,3.40
2018-03-29T07:53:48.447Z,3.50
2018-03-29T07:56:16.415Z,4.03
2018-03-29T07:58:44.300Z,3.33
2018-03-29T08:01:12.266Z,3.97
2018-03-29T08:03:41.184Z,4.40
2018-03-29T08:06:09.218Z,2.90
2018-03-29T08:08:37.032Z,2.93
2018-03-29T08:11:04.911Z,3.20
2018-03-29T08:13:32.789Z,2.73
2018-03-29T08:16:01.064Z,3.30
2018-03-29T08:18:28.943Z,2.70
2018-03-29T08:20:56.890Z,2.83
2018-03-29T08:23:24.745Z,9.83
2018-03-29T08:25:52.641Z,3.83
2018-03-29T08:28:20.512Z,8.00
2018-03-29T08:30:48.422Z,4.43
2018-03-29T08:33:17.054Z,2.73
2018-03-29T08:35:44.935Z,2.90
2018-03-29T08:38:12.850Z,3.97
2018-03-29T08:40:41.860Z,3.60
2018-03-29T08:43:09.775Z,5.10
2018-03-29T08:45:41.089Z,2.77
2018-03-29T08:48:08.999Z,3.83
2018-03-29T08:50:36.852Z,3.03
2018-03-29T08:53:04.911Z,5.63
2018-03-29T08:55:32.794Z,15.90
2018-03-29T08:58:00.713Z,14.27
2018-03-29T09:00:29.012Z,5.10
2018-03-29T09:02:56.999Z,8.73
2018-03-29T09:05:24.882Z,3.17
2018-03-29T09:07:52.837Z,5.33
2018-03-29T09:10:20.672Z,7.87
2018-03-29T09:12:48.878Z,11.10
2018-03-29T09:15:16.789Z,3.87
2018-03-29T09:17:44.699Z,7.00
2018-03-29T09:20:13.182Z,4.50
2018-03-29T09:22:41.593Z,10.20
2018-03-29T09:25:09.752Z,18.17
2018-03-29T09:27:37.741Z,15.83
2018-03-29T09:30:05.611Z,7.67
2018-03-29T09:32:33.788Z,4.67
2018-03-29T09:35:02.099Z,5.17
2018-03-29T09:37:30.016Z,6.33
2018-03-29T09:39:57.953Z,6.30
2018-03-29T09:42:25.819Z,7.73
2018-03-29T09:44:53.777Z,11.53
2018-03-29T09:47:21.776Z,7.77
2018-03-29T09:49:49.922Z,8.10
2018-03-29T09:52:17.944Z,10.00
2018-03-29T09:54:46.036Z,4.73
2018-03-29T09:57:14.021Z,14.50
2018-03-29T09:59:42.007Z,8.50
2018-03-29T10:02:16.244Z,6.10
2018-03-29T10:04:44.149Z,6.87
2018-03-29T10:07:18.334Z,5.67
2018-03-29T10:09:46.273Z,6.90
2018-03-29T10:12:14.409Z,14.60
2018-03-29T10:14:42.330Z,6.27
2018-03-29T10:17:10.285Z,5.97
2018-03-29T10:19:38.174Z,5.27
2018-03-29T10:22:06.025Z,11.50
2018-03-29T10:24:33.905Z,9.00
2018-03-29T10:27:01.789Z,5.63
2018-03-29T10:29:30.266Z,5.87
2018-03-29T10:31:58.278Z,5.00
2018-03-29T10:34:26.127Z,4.23
2018-03-29T10:36:54.072Z,5.63
2018-03-29T10:39:21.939Z,3.17
2018-03-29T10:41:49.926Z,4.43
2018-03-29T10:44:17.799Z,6.17
2018-03-29T10:46:45.847Z,6.10
2018-03-29T10:49:13.935Z,4.60
2018-03-29T10:51:41.893Z,10.70
2018-03-29T10:54:09.938Z,3.67
2018-03-29T10:56:37.871Z,5.70
2018-03-29T10:59:05.785Z,6.60
2018-03-29T11:01:33.660Z,5.93
2018-03-29T11:04:01.649Z,6.10
2018-03-29T11:06:29.521Z,3.90
2018-03-29T11:08:57.425Z,5.10
2018-03-29T11:11:25.379Z,3.00
2018-03-29T11:13:53.687Z,5.47
2018-03-29T11:16:21.627Z,3.90
2018-03-29T11:18:50.493Z,5.77
2018-03-29T11:21:18.470Z,4.67
2018-03-29T11:23:46.501Z,3.40
2018-03-29T11:26:14.415Z,2.60
2018-03-29T11:28:42.367Z,3.43
2018-03-29T11:31:10.488Z,2.90
2018-03-29T11:33:38.499Z,5.00
2018-03-29T11:36:06.423Z,4.47
2018-03-29T11:38:34.335Z,6.63
2018-03-29T11:41:02.269Z,4.60
2018-03-29T11:43:30.182Z,7.07
2018-03-29T11:45:58.051Z,3.90
2018-03-29T11:48:25.955Z,10.87
2018-03-29T11:50:53.835Z,14.53
2018-03-29T11:53:21.702Z,10.67
2018-03-29T11:55:49.604Z,7.30
2018-03-29T11:58:17.483Z,10.13
2018-03-29T12:00:45.395Z,6.90
2018-03-29T12:03:13.285Z,4.97
2018-03-29T12:05:41.138Z,7.40
2018-03-29T12:08:09.050Z,7.03
2018-03-29T12:10:36.978Z,8.80
2018-03-29T12:13:04.837Z,8.43
2018-03-29T12:15:32.718Z,5.20
2018-03-29T12:18:00.729Z,7.17
2018-03-29T12:20:28.608Z,34.90
2018-03-29T12:22:56.463Z,12.13
2018-03-29T12:25:24.432Z,18.10
2018-03-29T12:27:52.302Z,13.40
2018-03-29T12:30:20.242Z,10.43
2018-03-29T12:32:48.163Z,6.40
2018-03-29T12:35:16.137Z,12.30
2018-03-29T12:37:44.051Z,10.00
2018-03-29T12:40:11.937Z,14.47
2018-03-29T12:42:39.845Z,10.37
2018-03-29T12:45:07.749Z,12.80
2018-03-29T12:47:35.663Z,7.03
2018-03-29T12:50:03.643Z,10.13
2018-03-29T12:52:31.544Z,10.77
2018-03-29T12:55:05.500Z,8.70
2018-03-29T12:57:39.463Z,9.00
2018-03-29T13:00:07.472Z,10.33
2018-03-29T13:02:35.387Z,7.83
2018-03-29T13:05:04.423Z,11.23
2018-03-29T13:07:32.358Z,8.13
2018-03-29T13:10:01.308Z,7.20
2018-03-29T13:12:29.243Z,9.50
2018-03-29T13:14:57.135Z,8.30
2018-03-29T13:17:26.148Z,8.20
2018-03-29T13:19:54.672Z,10.23
2018-03-29T13:22:23.156Z,10.53
2018-03-29T13:24:51.258Z,11.20
2018-03-29T13:27:19.320Z,9.13
2018-03-29T13:29:47.301Z,9.83
2018-03-29T13:32:15.660Z,10.73
2018-03-29T13:34:44.054Z,10.43
2018-03-29T13:37:12.465Z,11.70
2018-03-29T13:39:41.050Z,11.10
2018-03-29T13:42:10.099Z,12.13
2018-03-29T13:44:38.620Z,14.03
2018-03-29T13:47:06.576Z,15.10
2018-03-29T13:49:35.942Z,14.70
2018-03-29T13:52:03.841Z,14.60
2018-03-29T13:54:32.090Z,14.97
2018-03-29T13:57:00.091Z,13.07
2018-03-29T13:59:29.146Z,13.53
2018-03-29T14:01:57.138Z,14.90
2018-03-29T14:04:25.344Z,13.83
2018-03-29T14:06:53.214Z,12.73
2018-03-29T14:09:21.125Z,14.97
2018-03-29T14:11:49.211Z,14.20
2018-03-29T14:14:19.349Z,15.27
2018-03-29T14:16:47.267Z,18.83
2018-03-29T14:19:16.338Z,13.70
2018-03-29T14:21:44.371Z,16.17
2018-03-29T14:24:12.342Z,15.00
2018-03-29T14:26:40.406Z,19.90
2018-03-29T14:29:08.417Z,23.20
2018-03-29T14:31:36.435Z,21.57
2018-03-29T14:34:06.154Z,21.00
2018-03-29T14:36:34.080Z,18.63
2018-03-29T14:39:02.020Z,21.50
2018-03-29T14:41:29.950Z,14.90
2018-03-29T14:43:57.851Z,18.27
2018-03-29T14:46:25.770Z,20.47
2018-03-29T14:48:53.641Z,20.07
2018-03-29T14:51:21.606Z,17.70
2018-03-29T14:53:49.520Z,21.57
2018-03-29T14:56:17.400Z,15.63
2018-03-29T14:58:45.296Z,17.00
2018-03-29T15:01:14.611Z,18.73
2018-03-29T15:03:44.938Z,18.53
2018-03-29T15:06:14.556Z,17.60
2018-03-29T15:08:42.540Z,15.17
2018-03-29T15:11:10.470Z,15.40
2018-03-29T15:13:38.584Z,20.20
2018-03-29T15:16:06.398Z,16.13
2018-03-29T15:18:34.321Z,20.07
2018-03-29T15:21:02.272Z,19.73
2018-03-29T15:23:30.244Z,18.20
2018-03-29T15:25:58.166Z,17.60
2018-03-29T15:28:26.101Z,18.57
2018-03-29T15:30:53.972Z,19.10
2018-03-29T15:33:24.553Z,19.70
2018-03-29T15:35:54.582Z,19.13
2018-03-29T15:38:22.618Z,20.93
2018-03-29T15:40:50.477Z,20.50
2018-03-29T15:43:18.435Z,26.20
2018-03-29T15:45:46.339Z,20.67
2018-03-29T15:48:14.221Z,22.20
2018-03-29T15:50:42.180Z,20.30
2018-03-29T15:53:10.193Z,23.30
2018-03-29T15:55:38.139Z,22.00
2018-03-29T15:58:06.125Z,22.30
2018-03-29T16:00:34.153Z,18.23
2018-03-29T16:03:02.109Z,25.57
2018-03-29T16:05:30.173Z,19.40
2018-03-29T16:07:58.129Z,21.23
2018-03-29T16:10:25.987Z,21.10
2018-03-29T16:12:53.879Z,23.80
2018-03-29T16:15:21.811Z,24.03
2018-03-29T16:17:49.689Z,22.70
2018-03-29T16:20:18.443Z,22.70
2018-03-29T16:22:46.323Z,22.67
2018-03-29T16:25:14.208Z,21.77
2018-03-29T16:27:42.181Z,27.17
2018-03-29T16:30:10.080Z,22.40
2018-03-29T16:32:38.005Z,29.97
2018-03-29T16:35:05.979Z,22.93
2018-03-29T16:37:33.865Z,24.90
2018-03-29T16:40:01.779Z,24.90
2018-03-29T16:42:29.687Z,27.87
2018-03-29T16:44:57.548Z,24.67
2018-03-29T16:47:25.446Z,20.57
2018-03-29T16:49:54.072Z,20.20
2018-03-29T16:52:21.934Z,24.03
2018-03-29T16:54:49.911Z,24.67
2018-03-29T16:57:17.788Z,23.00
2018-03-29T16:59:45.681Z,37.43
2018-03-29T17:02:14.481Z,31.07
2018-03-29T17:04:42.345Z,64.70
2018-03-29T17:07:10.226Z,34.77
2018-03-29T17:09:38.175Z,105.70
2018-03-29T17:12:06.085Z,156.00
2018-03-29T17:14:33.972Z,63.53
2018-03-29T17:17:01.983Z,67.03
2018-03-29T17:19:29.868Z,99.17
2018-03-29T17:21:57.766Z,61.60
2018-03-29T17:24:25.665Z,43.17
2018-03-29T17:26:53.542Z,54.17
2018-03-29T17:29:21.486Z,58.40
2018-03-29T17:31:49.482Z,52.60
2018-03-29T17:34:17.401Z,33.77
2018-03-29T17:36:45.247Z,25.63
2018-03-29T17:39:13.132Z,27.00
2018-03-29T17:41:41.091Z,29.73
2018-03-29T17:44:08.978Z,20.70
2018-03-29T17:46:36.869Z,17.03
2018-03-29T17:49:04.801Z,18.10
2018-03-29T17:51:32.685Z,19.63
2018-03-29T17:54:00.564Z,23.00
2018-03-29T17:56:28.440Z,17.20
2018-03-29T17:58:56.305Z,19.10
2018-03-29T18:01:24.179Z,29.30
2018-03-29T18:03:52.127Z,24.97
2018-03-29T18:06:20.148Z,35.53
2018-03-29T18:08:47.989Z,21.73
2018-03-29T18:11:15.923Z,31.63
2018-03-29T18:13:43.751Z,22.43
2018-03-29T18:16:11.623Z,39.47
2018-03-29T18:18:39.532Z,28.43
2018-03-29T18:21:07.412Z,24.33
2018-03-29T18:23:35.288Z,25.90
2018-03-29T18:26:03.343Z,23.20
2018-03-29T18:28:31.234Z,21.97
2018-03-29T18:30:59.099Z,32.07
2018-03-29T18:33:26.963Z,25.83
2018-03-29T18:35:54.863Z,22.60
2018-03-29T18:38:22.759Z,20.57
2018-03-29T18:40:50.659Z,21.47
2018-03-29T18:43:18.525Z,22.97
2018-03-29T18:45:46.383Z,16.70
2018-03-29T18:48:14.440Z,29.77
2018-03-29T18:50:42.407Z,20.83
2018-03-29T18:53:10.300Z,22.13
2018-03-29T18:55:38.175Z,20.83
2018-03-29T18:58:06.148Z,19.63
2018-03-29T19:00:41.004Z,12.30
2018-03-29T19:03:09.182Z,20.90
2018-03-29T19:05:37.082Z,23.03
2018-03-29T19:08:04.988Z,14.70
2018-03-29T19:10:32.910Z,14.47
2018-03-29T19:13:00.844Z,20.20
2018-03-29T19:15:28.728Z,16.70
2018-03-29T19:17:57.475Z,21.63
2018-03-29T19:20:25.377Z,21.03
2018-03-29T19:22:53.373Z,29.17
2018-03-29T19:25:21.251Z,20.77
2018-03-29T19:27:49.131Z,13.30
2018-03-29T19:30:17.031Z,19.10
2018-03-29T19:32:44.898Z,26.97
2018-03-29T19:35:12.779Z,22.07
2018-03-29T19:37:40.794Z,16.80
2018-03-29T19:40:08.640Z,18.23
2018-03-29T19:42:36.545Z,21.23
2018-03-29T19:45:04.457Z,25.83
2018-03-29T19:47:32.348Z,19.37
2018-03-29T19:50:00.192Z,22.53
2018-03-29T19:52:28.084Z,18.53
2018-03-29T19:54:55.997Z,23.23
2018-03-29T19:57:23.871Z,25.27
2018-03-29T19:59:51.796Z,23.03
2018-03-29T20:02:19.810Z,18.00
2018-03-29T20:04:47.669Z,36.03
2018-03-29T20:07:15.575Z,19.53
2018-03-29T20:09:43.436Z,26.90
2018-03-29T20:12:11.327Z,22.53
2018-03-29T20:14:39.217Z,14.50
2018-03-29T20:17:07.186Z,21.63
2018-03-29T20:19:35.086Z,18.43
2018-03-29T20:22:02.996Z,21.20
2018-03-29T20:24:30.941Z,28.53
2018-03-29T20:26:58.843Z,25.80
2018-03-29T20:29:26.719Z,27.73
2018-03-29T20:31:54.593Z,20.50
2018-03-29T20:34:22.874Z,17.47
2018-03-29T20:36:50.801Z,22.30
2018-03-29T20:39:19.796Z,20.57
2018-03-29T20:41:48.885Z,23.63
2018-03-29T20:44:16.751Z,31.00
2018-03-29T20:46:44.784Z,32.03
2018-03-29T20:49:12.672Z,37.43
2018-03-29T20:51:40.667Z,25.13
2018-03-29T20:54:08.576Z,37.53
2018-03-29T20:56:36.589Z,29.90
2018-03-29T20:59:04.482Z,39.23
2018-03-29T21:01:32.362Z,31.97
2018-03-29T21:04:00.247Z,31.63
2018-03-29T21:06:28.141Z,51.23
2018-03-29T21:08:56.019Z,73.23
2018-03-29T21:11:23.954Z,60.60
2018-03-29T21:13:51.829Z,91.10
2018-03-29T21:16:19.731Z,28.30
2018-03-29T21:18:47.579Z,67.70
2018-03-29T21:21:15.547Z,82.77
2018-03-29T21:23:43.424Z,62.50
2018-03-29T21:26:11.357Z,72.20
2018-03-29T21:28:39.309Z,91.10
2018-03-29T21:31:07.186Z,48.40
2018-03-29T21:33:35.067Z,28.80
2018-03-29T21:36:04.108Z,125.83
2018-03-29T21:38:32.016Z,84.80
2018-03-29T21:40:59.900Z,96.47
2018-03-29T21:43:27.760Z,115.27
2018-03-29T21:45:55.613Z,76.90
2018-03-29T21:48:23.482Z,66.30
2018-03-29T21:50:51.415Z,71.90
2018-03-29T21:53:19.282Z,35.13
2018-03-29T21:55:47.134Z,63.37
2018-03-29T21:58:15.022Z,49.17
2018-03-29T22:00:42.933Z,64.80
2018-03-29T22:03:10.834Z,38.43
2018-03-29T22:05:38.741Z,46.13
2018-03-29T22:08:07.766Z,32.60
2018-03-29T22:10:35.640Z,26.00
2018-03-29T22:13:03.533Z,28.10
2018-03-29T22:15:31.446Z,21.83
2018-03-29T22:17:59.383Z,22.40
2018-03-29T22:20:27.349Z,27.37
2018-03-29T22:22:55.219Z,23.10
2018-03-29T22:25:25.141Z,21.93
2018-03-29T22:27:53.888Z,21.70
2018-03-29T22:30:21.759Z,25.90
2018-03-29T22:32:49.638Z,19.67
2018-03-29T22:35:17.533Z,21.03
2018-03-29T22:37:45.388Z,24.03
2018-03-29T22:40:13.261Z,24.87
2018-03-29T22:42:41.152Z,21.00
2018-03-29T22:45:09.022Z,20.50
2018-03-29T22:47:36.933Z,25.70
2018-03-29T22:50:04.807Z,36.10
2018-03-29T22:52:32.748Z,42.93
2018-03-29T22:55:00.632Z,45.50
2018-03-29T22:57:28.496Z,33.67
2018-03-29T22:59:56.587Z,45.73
2018-03-29T23:02:26.622Z,21.10
2018-03-29T23:04:55.260Z,30.03
2018-03-29T23:07:23.148Z,24.63
2018-03-29T23:09:51.027Z,22.77
2018-03-29T23:12:19.199Z,28.83
2018-03-29T23:14:47.085Z,29.30
2018-03-29T23:17:14.995Z,56.87
2018-03-29T23:19:42.843Z,74.27
2018-03-29T23:22:10.872Z,43.80
2018-03-29T23:24:38.843Z,39.17
2018-03-29T23:27:07.254Z,26.77
2018-03-29T23:29:35.233Z,33.13
2018-03-29T23:32:03.113Z,29.70
2018-03-29T23:34:31.122Z,33.07
2018-03-29T23:36:58.974Z,24.03
2018-03-29T23:39:26.972Z,26.10
2018-03-29T23:41:54.906Z,25.87
2018-03-29T23:44:22.835Z,31.07
2018-03-29T23:46:50.718Z,30.93
2018-03-29T23:49:18.657Z,22.00
2018-03-29T23:51:46.559Z,25.30
2018-03-29T23:54:14.454Z,27.37
2018-03-29T23:56:42.485Z,22.63
2018-03-29T23:59:10.329Z,36.20
